Time;durP1;ratioP1;P1;durP2;ratioP2;P2;SDS_P1;SDS_P2;PMS_P1;PMS_P2;Temp;Humidity;BMP_temperature;BMP_pressure;BME280_temperature;BME280_humidity;BME280_pressure;Samples;Min_cycle;Max_cycle;Signal;HPM_P1;HPM_P2
2022/02/01 00:00:41;;;;;;;36.90;6.38;;;4.40;87.20;;;;;;6161663;23;20021;-81
2022/02/01 00:03:15;;;;;;;33.20;6.60;;;4.40;87.10;;;;;;6139338;23;20028;-82
2022/02/01 00:08:30;;;;;;;28.50;7.30;;;4.40;87.20;;;;;;6138041;23;20028;-83
2022/02/01 00:11:09;;;;;;;41.63;7.47;;;4.40;87.30;;;;;;6162586;23;20025;-81
2022/02/01 00:19:05;;;;;;;35.53;7.55;;;4.40;87.40;;;;;;6136031;23;20069;-82
2022/02/01 00:37:34;;;;;;;32.38;6.00;;;4.50;87.90;;;;;;6185807;23;20021;-81
2022/02/01 00:40:06;;;;;;;27.02;5.18;;;4.50;88.10;;;;;;6135343;23;20048;-81
2022/02/01 00:42:32;;;;;;;33.43;6.03;;;4.50;88.20;;;;;;6136097;23;20024;-81
2022/02/01 00:44:57;;;;;;;25.13;5.25;;;4.50;88.30;;;;;;6134665;23;20232;-81
2022/02/01 00:47:23;;;;;;;30.27;6.07;;;4.50;88.40;;;;;;6134858;23;20068;-81
2022/02/01 00:49:49;;;;;;;30.40;5.85;;;4.50;88.50;;;;;;6159160;23;20024;-82
2022/02/01 00:52:14;;;;;;;28.85;5.72;;;4.50;88.60;;;;;;6159528;23;20043;-80
2022/02/01 00:54:41;;;;;;;35.47;6.00;;;4.50;88.70;;;;;;6159977;23;20439;-81
2022/02/01 00:57:10;;;;;;;23.17;5.40;;;4.50;88.80;;;;;;6184418;23;20017;-80
2022/02/01 00:59:36;;;;;;;23.27;5.18;;;4.50;88.80;;;;;;6111740;23;20095;-80
2022/02/01 01:02:02;;;;;;;33.67;5.07;;;4.50;88.90;;;;;;6133914;23;20375;-80
2022/02/01 01:04:28;;;;;;;30.50;4.85;;;4.50;89.00;;;;;;6135303;23;20028;-81
2022/02/01 01:06:53;;;;;;;23.88;4.32;;;4.50;89.00;;;;;;6134231;23;20025;-82
2022/02/01 01:09:19;;;;;;;24.50;5.30;;;4.50;89.10;;;;;;6134124;23;20017;-82
2022/02/01 01:11:45;;;;;;;26.60;5.30;;;4.60;89.30;;;;;;6134634;23;20020;-81
2022/02/01 01:43:46;;;;;;;21.38;3.85;;;4.60;90.10;;;;;;6139148;23;20048;-81
2022/02/01 01:53:58;;;;;;;27.15;3.70;;;4.60;90.20;;;;;;6160640;23;20025;-86
2022/02/01 01:56:24;;;;;;;28.63;4.28;;;4.60;90.30;;;;;;6160013;23;20456;-83
2022/02/01 01:58:49;;;;;;;20.80;4.22;;;4.60;90.30;;;;;;6134963;23;20020;-80
2022/02/01 02:01:16;;;;;;;23.98;3.75;;;4.60;90.30;;;;;;6158089;23;20013;-80
2022/02/01 02:03:43;;;;;;;28.92;4.03;;;4.60;90.30;;;;;;6134557;23;20075;-81
2022/02/01 02:06:09;;;;;;;32.03;4.80;;;4.60;90.40;;;;;;6134344;23;20017;-80
2022/02/01 02:08:35;;;;;;;26.55;3.95;;;4.60;90.50;;;;;;6158831;23;20021;-81
2022/02/01 02:11:07;;;;;;;42.78;6.97;;;4.60;90.50;;;;;;6157978;23;20021;-82
2022/02/01 02:16:22;;;;;;;25.80;4.78;;;4.60;90.60;;;;;;6138112;23;20017;-82
2022/02/01 02:18:48;;;;;;;22.45;5.15;;;4.60;90.60;;;;;;6134325;23;20013;-81
2022/02/01 02:21:14;;;;;;;24.05;4.68;;;4.70;90.70;;;;;;6133496;23;20096;-81
2022/02/01 02:23:39;;;;;;;36.50;5.80;;;4.70;90.70;;;;;;6134225;23;20017;-82
2022/02/01 02:26:07;;;;;;;19.60;3.90;;;4.60;90.70;;;;;;6133852;23;20343;-81
2022/02/01 02:28:33;;;;;;;30.70;5.53;;;4.70;90.80;;;;;;6159235;23;20017;-81
2022/02/01 02:31:01;;;;;;;22.48;4.28;;;4.70;90.80;;;;;;6134491;23;20017;-81
2022/02/01 02:33:27;;;;;;;27.35;4.32;;;4.70;90.90;;;;;;6158880;23;20115;-81
2022/02/01 02:35:59;;;;;;;23.38;4.35;;;4.60;90.90;;;;;;6186181;23;20021;-81
2022/02/01 02:38:32;;;;;;;26.17;5.70;;;4.70;90.90;;;;;;6162159;23;20013;-81
2022/02/01 02:41:29;;;;;;;24.52;5.95;;;4.70;90.90;;;;;;6137943;23;20075;-81
2022/02/01 02:46:41;;;;;;;21.98;3.72;;;4.70;91.00;;;;;;6144494;23;20021;-81
2022/02/01 02:49:10;;;;;;;22.88;3.08;;;4.80;91.00;;;;;;6111287;23;20017;-82
2022/02/01 02:51:36;;;;;;;27.73;3.97;;;4.70;91.00;;;;;;6161044;23;20028;-79
2022/02/01 02:54:09;;;;;;;23.73;4.13;;;4.70;91.00;;;;;;6136516;23;20013;-81
2022/02/01 02:56:35;;;;;;;23.13;3.83;;;4.80;91.00;;;;;;6161636;23;20369;-81
2022/02/01 02:59:01;;;;;;;21.58;3.67;;;4.80;91.00;;;;;;6136112;23;20068;-81
2022/02/01 03:01:27;;;;;;;19.17;3.63;;;4.80;91.10;;;;;;6135964;23;20448;-81
2022/02/01 03:03:53;;;;;;;25.13;3.67;;;4.80;91.00;;;;;;6160240;23;20052;-80
2022/02/01 03:06:19;;;;;;;17.20;3.13;;;4.80;91.00;;;;;;6159745;23;20071;-82
2022/02/01 03:08:44;;;;;;;24.05;4.38;;;4.80;91.10;;;;;;6135346;23;20025;-80
2022/02/01 03:11:13;;;;;;;23.52;3.25;;;4.80;91.10;;;;;;6135313;23;20017;-81
2022/02/01 03:13:43;;;;;;;18.55;2.40;;;4.90;91.10;;;;;;6136583;23;20024;-81
2022/02/01 03:16:46;;;;;;;20.80;3.22;;;4.90;91.10;;;;;;6136694;23;20029;-86
2022/02/01 03:21:39;;;;;;;19.88;3.33;;;4.90;91.10;;;;;;6139625;23;20021;-81
2022/02/01 03:24:05;;;;;;;20.27;2.72;;;4.90;91.10;;;;;;6186400;23;20032;-80
2022/02/01 03:26:30;;;;;;;15.35;4.85;;;4.90;91.10;;;;;;6110891;23;20013;-82
2022/02/01 03:28:56;;;;;;;24.85;3.45;;;4.90;91.00;;;;;;6160182;23;20039;-82
2022/02/01 03:31:22;;;;;;;14.52;1.92;;;4.90;91.00;;;;;;6159495;23;20024;-82
2022/02/01 03:33:47;;;;;;;15.40;1.98;;;4.90;91.00;;;;;;6160605;23;20020;-81
2022/02/01 03:36:13;;;;;;;15.43;2.28;;;4.90;91.00;;;;;;6134775;23;20440;-84
2022/02/01 03:38:39;;;;;;;12.73;2.50;;;4.90;91.00;;;;;;6159994;23;20395;-81
2022/02/01 03:41:05;;;;;;;13.57;2.00;;;4.90;90.90;;;;;;6135518;23;20017;-80
2022/02/01 03:43:30;;;;;;;9.13;1.70;;;4.90;90.90;;;;;;6159927;23;20101;-81
2022/02/01 03:45:56;;;;;;;11.40;2.30;;;4.90;90.90;;;;;;6110885;23;20082;-80
2022/02/01 03:48:22;;;;;;;9.30;1.83;;;4.90;90.80;;;;;;6133767;23;20024;-81
2022/02/01 03:50:47;;;;;;;12.27;2.65;;;4.90;90.80;;;;;;6135017;23;20021;-80
2022/02/01 03:53:13;;;;;;;13.02;2.30;;;5.00;90.80;;;;;;6160030;23;20097;-84
2022/02/01 03:55:39;;;;;;;16.70;1.70;;;4.90;90.80;;;;;;6135086;23;20044;-81
2022/02/01 03:58:05;;;;;;;12.93;2.83;;;4.90;90.80;;;;;;6160142;23;20376;-82
2022/02/01 04:00:31;;;;;;;10.85;1.60;;;5.00;90.80;;;;;;6110723;23;20021;-81
2022/02/01 04:02:58;;;;;;;10.25;2.28;;;5.00;90.80;;;;;;6160033;23;20020;-81
2022/02/01 04:05:24;;;;;;;12.35;2.03;;;4.90;90.70;;;;;;6135381;23;20025;-82
2022/02/01 04:07:51;;;;;;;11.82;1.77;;;4.90;90.70;;;;;;6185645;23;20028;-80
2022/02/01 04:10:20;;;;;;;16.48;2.47;;;5.00;90.80;;;;;;6185335;23;20096;-85
2022/02/01 04:12:45;;;;;;;11.23;1.48;;;5.00;90.80;;;;;;6160777;23;20040;-80
2022/02/01 04:15:11;;;;;;;11.23;1.70;;;5.00;90.80;;;;;;6136127;23;20432;-80
2022/02/01 04:17:38;;;;;;;10.25;1.80;;;5.00;90.80;;;;;;6135380;23;20239;-79
2022/02/01 04:20:05;;;;;;;14.75;1.80;;;4.90;90.80;;;;;;6135695;23;20020;-80
2022/02/01 04:22:30;;;;;;;17.23;1.95;;;5.00;90.80;;;;;;6110937;23;20447;-81
2022/02/01 04:24:56;;;;;;;8.65;2.53;;;4.90;90.80;;;;;;6135332;23;20028;-81
2022/02/01 04:27:31;;;;;;;13.35;2.40;;;5.00;90.90;;;;;;6160026;23;20025;-84
2022/02/01 04:30:07;;;;;;;12.82;1.83;;;4.90;90.90;;;;;;6161736;23;20024;-81
2022/02/01 04:32:36;;;;;;;18.98;4.07;;;4.90;90.90;;;;;;6136756;23;20099;-80
2022/02/01 04:35:03;;;;;;;11.18;2.28;;;5.00;90.90;;;;;;6137011;23;20013;-81
2022/02/01 04:37:29;;;;;;;16.27;2.38;;;4.90;90.90;;;;;;6112374;23;20075;-81
2022/02/01 04:39:55;;;;;;;13.00;2.85;;;5.00;91.00;;;;;;6161825;23;20037;-81
2022/02/01 04:42:20;;;;;;;12.40;2.33;;;4.90;91.00;;;;;;6161588;23;20079;-83
2022/02/01 04:44:46;;;;;;;15.45;2.40;;;4.90;91.00;;;;;;6111712;23;20321;-80
2022/02/01 04:47:12;;;;;;;23.48;4.18;;;4.90;91.10;;;;;;6136346;23;20013;-80
2022/02/01 04:49:38;;;;;;;12.88;2.33;;;4.90;91.10;;;;;;6160015;23;20413;-80
2022/02/01 04:52:04;;;;;;;16.77;2.97;;;4.90;91.20;;;;;;6159852;23;20060;-80
2022/02/01 04:54:30;;;;;;;16.42;2.60;;;4.90;91.20;;;;;;6133939;23;20053;-82
2022/02/01 04:56:55;;;;;;;11.68;2.65;;;4.90;91.20;;;;;;6135258;23;20013;-81
2022/02/01 04:59:21;;;;;;;16.42;3.05;;;5.00;91.20;;;;;;6159903;23;20332;-82
2022/02/01 05:01:49;;;;;;;22.52;3.72;;;4.90;91.20;;;;;;6134202;23;20104;-81
2022/02/01 05:04:19;;;;;;;18.67;4.38;;;4.90;91.20;;;;;;6135734;23;20074;-82
2022/02/01 05:06:54;;;;;;;12.55;3.22;;;4.90;91.20;;;;;;6136673;23;20076;-82
2022/02/01 05:09:20;;;;;;;16.45;2.97;;;4.90;91.20;;;;;;6136320;23;20395;-82
2022/02/01 05:11:47;;;;;;;23.05;4.65;;;5.00;91.30;;;;;;6159059;23;20017;-80
2022/02/01 05:14:20;;;;;;;19.88;3.42;;;5.00;91.30;;;;;;6110207;23;20020;-81
2022/02/01 05:19:16;;;;;;;17.58;3.38;;;4.90;91.50;;;;;;6134586;23;19963;-79
2022/02/01 05:21:44;;;;;;;19.13;3.10;;;4.90;91.30;;;;;;6135817;23;20071;-79
2022/02/01 05:24:12;;;;;;;18.55;4.60;;;4.90;91.30;;;;;;6159607;23;20017;-78
2022/02/01 05:26:57;;;;;;;20.10;4.55;;;4.90;91.30;;;;;;6134835;23;20021;-80
2022/02/01 05:29:23;;;;;;;16.60;3.78;;;4.90;91.40;;;;;;6160242;23;20019;-79
2022/02/01 05:31:51;;;;;;;25.67;5.60;;;4.90;91.40;;;;;;6134758;23;20019;-82
2022/02/01 05:34:17;;;;;;;21.88;5.07;;;5.00;91.40;;;;;;6160476;23;20071;-80
2022/02/01 05:36:43;;;;;;;24.17;5.05;;;5.00;91.40;;;;;;6110150;23;20021;-81
2022/02/01 05:39:24;;;;;;;25.90;4.82;;;5.00;91.40;;;;;;6134807;23;20024;-81
2022/02/01 05:41:52;;;;;;;15.45;4.30;;;4.90;91.40;;;;;;6158811;23;20021;-79
2022/02/01 05:44:17;;;;;;;26.70;4.85;;;5.00;91.40;;;;;;6159848;23;20013;-81
2022/02/01 05:46:52;;;;;;;18.33;4.13;;;5.00;91.50;;;;;;6161882;23;20455;-81
2022/02/01 05:49:18;;;;;;;16.75;5.53;;;5.00;91.50;;;;;;6136687;23;20017;-81
2022/02/01 05:51:44;;;;;;;27.15;5.47;;;5.00;91.50;;;;;;6133616;23;20029;-80
2022/02/01 05:54:09;;;;;;;22.15;5.20;;;5.00;91.50;;;;;;6185769;23;20017;-81
2022/02/01 05:56:35;;;;;;;27.65;5.72;;;5.00;91.50;;;;;;6184872;23;20336;-82
2022/02/01 05:59:01;;;;;;;21.48;4.95;;;5.00;91.50;;;;;;6158631;23;20025;-80
2022/02/01 06:01:26;;;;;;;25.90;5.25;;;5.00;91.50;;;;;;6134496;23;20023;-81
2022/02/01 06:03:52;;;;;;;15.80;3.72;;;5.00;91.50;;;;;;6158279;23;20024;-80
2022/02/01 06:06:18;;;;;;;23.80;4.63;;;5.00;91.50;;;;;;6159048;23;20021;-81
2022/02/01 06:08:43;;;;;;;24.30;4.90;;;5.00;91.50;;;;;;6158139;23;20321;-81
2022/02/01 06:11:09;;;;;;;23.10;4.38;;;5.00;91.50;;;;;;6160410;23;20028;-80
2022/02/01 06:13:36;;;;;;;20.23;4.68;;;5.00;91.50;;;;;;6136141;23;20017;-85
2022/02/01 06:16:06;;;;;;;24.40;5.18;;;5.00;91.50;;;;;;6190221;23;20025;-80
2022/02/01 06:18:31;;;;;;;22.95;5.13;;;5.10;91.50;;;;;;6140996;23;20017;-80
2022/02/01 06:20:59;;;;;;;25.98;5.15;;;5.10;91.50;;;;;;6138218;23;20492;-81
2022/02/01 06:23:25;;;;;;;25.48;5.95;;;5.10;91.50;;;;;;6163020;23;20459;-81
2022/02/01 06:25:51;;;;;;;27.83;6.43;;;5.10;91.50;;;;;;6189327;23;20021;-82
2022/02/01 06:28:22;;;;;;;21.88;6.57;;;5.10;91.50;;;;;;6139209;23;20017;-81
2022/02/01 06:30:48;;;;;;;23.58;4.55;;;5.10;91.50;;;;;;6113190;23;20309;-80
2022/02/01 06:33:14;;;;;;;32.33;5.90;;;5.10;91.50;;;;;;6139571;23;20035;-80
2022/02/01 06:35:40;;;;;;;30.85;5.82;;;5.10;91.50;;;;;;6137619;23;20021;-86
2022/02/01 06:38:06;;;;;;;33.20;6.10;;;5.10;91.60;;;;;;6139373;23;20028;-84
2022/02/01 06:40:31;;;;;;;26.70;5.97;;;5.10;91.60;;;;;;6139898;23;20017;-82
2022/02/01 06:42:57;;;;;;;23.00;6.15;;;5.10;91.60;;;;;;6140415;23;20084;-81
2022/02/01 06:45:26;;;;;;;27.90;6.22;;;5.10;91.60;;;;;;6190962;23;20044;-82
2022/02/01 06:47:52;;;;;;;29.80;7.15;;;5.10;91.60;;;;;;6165512;23;20017;-81
2022/02/01 06:50:21;;;;;;;25.17;6.35;;;5.10;91.60;;;;;;6112637;23;20020;-81
2022/02/01 06:52:59;;;;;;;23.30;6.68;;;5.20;91.70;;;;;;6136580;23;20021;-81
2022/02/01 06:55:44;;;;;;;30.10;6.80;;;5.20;91.70;;;;;;6137613;23;20021;-85
2022/02/01 06:58:11;;;;;;;29.30;6.35;;;5.20;91.80;;;;;;6139829;23;20017;-84
2022/02/01 07:00:37;;;;;;;28.13;7.43;;;5.10;91.80;;;;;;6134884;23;20056;-79
2022/02/01 07:03:03;;;;;;;26.67;7.28;;;5.20;91.90;;;;;;6134918;23;20080;-76
2022/02/01 07:05:29;;;;;;;32.67;9.57;;;5.20;91.90;;;;;;6110158;23;20019;-80
2022/02/01 07:07:54;;;;;;;30.23;8.23;;;5.20;92.00;;;;;;6134634;23;20036;-79
2022/02/01 07:10:20;;;;;;;32.40;8.25;;;5.20;92.00;;;;;;6110165;23;20021;-79
2022/02/01 07:12:46;;;;;;;27.23;8.07;;;5.20;92.10;;;;;;6184578;23;20140;-85
2022/02/01 07:15:11;;;;;;;25.30;7.85;;;5.20;92.10;;;;;;6110408;23;20032;-79
2022/02/01 07:17:48;;;;;;;39.35;8.73;;;5.30;92.20;;;;;;6158206;23;20380;-81
2022/02/01 07:20:14;;;;;;;27.10;8.45;;;5.30;92.30;;;;;;6132539;23;20025;-80
2022/02/01 07:22:42;;;;;;;28.10;8.15;;;5.30;92.40;;;;;;6134724;23;20100;-78
2022/02/01 07:25:22;;;;;;;30.83;9.82;;;5.30;92.50;;;;;;6183309;23;20384;-81
2022/02/01 07:27:48;;;;;;;36.95;9.68;;;5.30;92.50;;;;;;6157362;23;20091;-87
2022/02/01 07:30:18;;;;;;;35.60;10.80;;;5.30;92.60;;;;;;6133624;23;20025;-78
2022/02/01 07:32:44;;;;;;;28.75;10.43;;;5.30;92.70;;;;;;6160028;23;20172;-78
2022/02/01 07:35:09;;;;;;;27.67;8.82;;;5.30;92.80;;;;;;6133957;23;20028;-78
2022/02/01 07:37:38;;;;;;;33.17;10.68;;;5.30;92.90;;;;;;6134579;23;20092;-78
2022/02/01 07:40:05;;;;;;;31.13;10.80;;;5.40;92.90;;;;;;6159429;23;20385;-77
2022/02/01 07:42:30;;;;;;;35.42;11.93;;;5.40;93.00;;;;;;6135168;23;20028;-77
2022/02/01 07:44:59;;;;;;;35.45;11.23;;;5.40;93.10;;;;;;6159578;23;20021;-78
2022/02/01 07:47:25;;;;;;;32.55;11.05;;;5.40;93.20;;;;;;6135984;23;20067;-78
2022/02/01 07:49:51;;;;;;;32.35;12.57;;;5.40;93.20;;;;;;6134762;23;20053;-78
2022/02/01 07:52:17;;;;;;;31.92;12.32;;;5.40;93.30;;;;;;6110974;23;20028;-77
2022/02/01 07:54:43;;;;;;;34.05;13.77;;;5.40;93.40;;;;;;6135132;23;20017;-76
2022/02/01 07:57:09;;;;;;;32.53;14.23;;;5.40;93.40;;;;;;6159603;23;20097;-76
2022/02/01 07:59:35;;;;;;;35.08;14.75;;;5.40;93.50;;;;;;6135208;23;20021;-78
2022/02/01 08:02:01;;;;;;;37.38;16.10;;;5.40;93.50;;;;;;6159350;23;20029;-77
2022/02/01 08:04:32;;;;;;;33.60;15.55;;;5.40;93.60;;;;;;6159783;23;20017;-77
2022/02/01 08:06:58;;;;;;;41.08;17.05;;;5.50;93.70;;;;;;6160678;23;20031;-77
2022/02/01 08:09:31;;;;;;;38.40;16.33;;;5.50;93.70;;;;;;6184163;23;20036;-77
2022/02/01 08:11:56;;;;;;;;;;;5.50;93.80;;;;;;6136972;23;20084;-78
2022/02/01 08:17:11;;;;;;;42.72;20.13;;;5.50;93.70;;;;;;6159305;23;20455;-77
2022/02/01 08:22:09;;;;;;;34.90;18.83;;;5.50;94.20;;;;;;6159493;23;20025;-77
2022/02/01 08:24:37;;;;;;;41.47;20.17;;;5.60;93.90;;;;;;6159852;23;20017;-77
2022/02/01 08:27:03;;;;;;;43.28;20.45;;;5.60;94.00;;;;;;6159977;23;20024;-77
2022/02/01 08:29:29;;;;;;;38.00;18.23;;;5.60;94.00;;;;;;6135239;23;20017;-77
2022/02/01 08:31:55;;;;;;;35.72;18.63;;;5.60;94.10;;;;;;6159546;23;20024;-87
2022/02/01 08:34:21;;;;;;;36.28;19.88;;;5.70;94.10;;;;;;6134904;23;20020;-80
2022/02/01 08:36:47;;;;;;;35.45;19.17;;;5.70;94.30;;;;;;6110844;23;20344;-78
2022/02/01 08:39:12;;;;;;;34.70;17.35;;;5.70;94.30;;;;;;6109883;23;20044;-78
2022/02/01 08:41:38;;;;;;;33.00;18.25;;;5.70;94.30;;;;;;6159727;23;20017;-79
2022/02/01 08:44:05;;;;;;;32.83;17.48;;;5.70;94.30;;;;;;6159534;23;20028;-79
2022/02/01 08:46:31;;;;;;;37.35;17.88;;;5.80;94.40;;;;;;6135218;23;20056;-79
2022/02/01 08:48:56;;;;;;;30.20;17.02;;;5.80;94.40;;;;;;6185936;23;20443;-79
2022/02/01 08:51:25;;;;;;;34.72;18.00;;;5.90;94.50;;;;;;6110278;23;20028;-80
2022/02/01 08:53:56;;;;;;;35.00;17.63;;;5.80;94.50;;;;;;6160092;23;20017;-78
2022/02/01 08:59:11;;;;;;;33.10;16.63;;;5.90;94.60;;;;;;6098427;23;20024;-78
2022/02/01 09:01:37;;;;;;;30.27;16.33;;;5.90;94.60;;;;;;6159387;23;20339;-78
2022/02/01 09:04:02;;;;;;;31.00;16.27;;;6.00;94.70;;;;;;6109932;23;20100;-79
2022/02/01 09:06:28;;;;;;;32.65;16.92;;;6.00;94.70;;;;;;6134992;23;20024;-78
2022/02/01 09:08:54;;;;;;;33.40;16.65;;;6.00;94.80;;;;;;6134232;23;20074;-79
2022/02/01 09:11:20;;;;;;;35.20;16.08;;;6.10;94.80;;;;;;6158665;23;20067;-78
2022/02/01 09:13:46;;;;;;;27.52;14.40;;;6.10;94.90;;;;;;6134628;23;20093;-77
2022/02/01 09:16:12;;;;;;;30.38;15.98;;;6.10;94.90;;;;;;6158708;23;20017;-78
2022/02/01 09:18:38;;;;;;;31.02;14.50;;;6.20;94.90;;;;;;6135095;23;20017;-79
2022/02/01 09:21:04;;;;;;;30.00;14.63;;;6.20;94.90;;;;;;6133916;23;20041;-81
2022/02/01 09:23:29;;;;;;;28.15;14.85;;;6.20;94.90;;;;;;6134671;23;20017;-79
2022/02/01 09:25:55;;;;;;;28.05;13.95;;;6.30;95.00;;;;;;6185023;23;20021;-79
2022/02/01 09:28:22;;;;;;;26.08;13.30;;;6.30;95.00;;;;;;6134034;23;20463;-79
2022/02/01 09:30:49;;;;;;;27.55;13.20;;;6.30;95.10;;;;;;6159719;23;20514;-78
2022/02/01 09:33:14;;;;;;;25.33;13.57;;;6.30;95.10;;;;;;6183170;23;20017;-78
2022/02/01 09:35:40;;;;;;;27.73;14.00;;;6.40;95.10;;;;;;6159327;23;20075;-78
2022/02/01 09:38:06;;;;;;;23.50;12.48;;;6.40;95.20;;;;;;6183269;23;20028;-80
2022/02/01 09:40:31;;;;;;;22.17;11.18;;;6.40;95.20;;;;;;6134516;23;20100;-80
2022/02/01 09:42:57;;;;;;;22.23;11.75;;;6.40;95.20;;;;;;6157876;23;20017;-77
2022/02/01 09:45:23;;;;;;;24.42;11.25;;;6.40;95.20;;;;;;6110242;23;20352;-77
2022/02/01 09:47:49;;;;;;;26.42;12.00;;;6.50;95.30;;;;;;6112358;23;20017;-79
2022/02/01 09:50:15;;;;;;;20.23;10.77;;;6.50;95.30;;;;;;6161031;23;20016;-79
2022/02/01 09:52:41;;;;;;;20.67;11.05;;;6.60;95.30;;;;;;6136472;23;20096;-79
2022/02/01 09:55:09;;;;;;;21.58;11.10;;;6.60;95.40;;;;;;6136139;23;20044;-92
2022/02/01 09:57:36;;;;;;;20.70;10.88;;;6.60;95.40;;;;;;6136523;23;20343;-79
2022/02/01 10:00:10;;;;;;;18.63;10.88;;;6.70;95.30;;;;;;6111914;23;20088;-79
2022/02/01 10:02:39;;;;;;;22.02;10.45;;;6.70;95.40;;;;;;6161256;23;20100;-79
2022/02/01 10:05:09;;;;;;;19.02;10.23;;;6.70;95.40;;;;;;6161606;23;20075;-79
2022/02/01 10:07:54;;;;;;;20.10;11.13;;;6.70;95.40;;;;;;6136262;23;20507;-79
2022/02/01 10:10:21;;;;;;;17.02;8.55;;;6.80;95.50;;;;;;6162670;23;20017;-79
2022/02/01 10:13:00;;;;;;;15.73;8.80;;;6.80;95.50;;;;;;6112108;23;20444;-79
2022/02/01 10:15:26;;;;;;;13.55;7.45;;;6.90;95.70;;;;;;6111874;23;20091;-80
2022/02/01 10:18:00;;;;;;;16.17;7.43;;;6.90;95.60;;;;;;6135994;23;20013;-79
2022/02/01 10:20:45;;;;;;;16.45;7.30;;;7.00;95.70;;;;;;6113338;23;20019;-79
2022/02/01 10:23:21;;;;;;;10.02;6.25;;;7.00;95.70;;;;;;6161744;23;20025;-78
2022/02/01 10:26:03;;;;;;;10.07;6.07;;;7.00;95.80;;;;;;6160553;23;20017;-79
2022/02/01 10:28:44;;;;;;;;;;;7.10;95.80;;;;;;6161258;23;20024;-80
2022/02/01 10:31:14;;;;;;;12.05;6.22;;;7.20;96.30;;;;;;6160851;23;19958;-80
2022/02/01 10:36:21;;;;;;;7.22;4.78;;;7.20;95.80;;;;;;6138837;23;20018;-81
2022/02/01 10:38:47;;;;;;;8.85;5.05;;;7.30;95.70;;;;;;6159673;23;20491;-78
2022/02/01 10:41:13;;;;;;;8.20;4.95;;;7.30;95.80;;;;;;6160660;23;20009;-78
2022/02/01 10:43:39;;;;;;;8.75;5.38;;;7.40;95.90;;;;;;6136374;23;20021;-77
2022/02/01 10:46:07;;;;;;;8.82;4.30;;;7.40;95.90;;;;;;6111594;23;20028;-78
2022/02/01 10:48:33;;;;;;;8.73;5.18;;;7.50;96.00;;;;;;6160406;23;20013;-78
2022/02/01 10:51:04;;;;;;;7.07;4.65;;;7.50;96.00;;;;;;6111333;23;20017;-79
2022/02/01 10:53:30;;;;;;;10.75;5.47;;;7.50;96.00;;;;;;6135683;23;20017;-79
2022/02/01 10:55:57;;;;;;;7.63;4.57;;;7.60;96.00;;;;;;6135719;23;20021;-78
2022/02/01 10:58:23;;;;;;;7.05;4.90;;;7.60;96.00;;;;;;6160660;23;20328;-79
2022/02/01 11:00:48;;;;;;;8.05;4.93;;;7.60;96.00;;;;;;6159757;23;20013;-78
2022/02/01 11:03:15;;;;;;;8.68;4.40;;;7.70;96.10;;;;;;6160444;23;20076;-79
2022/02/01 11:05:53;;;;;;;7.40;5.00;;;7.70;96.10;;;;;;6159598;23;20021;-80
2022/02/01 11:08:20;;;;;;;7.68;4.57;;;7.70;96.10;;;;;;6135985;23;20087;-78
2022/02/01 11:10:47;;;;;;;6.05;4.15;;;7.70;96.10;;;;;;6160432;23;20344;-78
2022/02/01 11:13:13;;;;;;;7.38;4.25;;;7.80;96.10;;;;;;6185401;23;20487;-78
2022/02/01 11:15:38;;;;;;;8.65;4.22;;;7.90;96.20;;;;;;6135438;23;20203;-80
2022/02/01 11:18:11;;;;;;;9.85;3.90;;;7.80;96.10;;;;;;6160503;23;20017;-79
2022/02/01 11:20:37;;;;;;;6.68;3.70;;;7.90;96.20;;;;;;6135408;23;20336;-76
2022/02/01 11:23:05;;;;;;;5.93;3.75;;;7.90;96.10;;;;;;6160026;23;20021;-79
2022/02/01 11:25:43;;;;;;;7.47;4.07;;;7.90;96.10;;;;;;6135482;23;20104;-80
2022/02/01 11:28:14;;;;;;;7.00;3.72;;;8.00;96.10;;;;;;6136693;23;20486;-79
2022/02/01 11:30:42;;;;;;;5.68;3.97;;;8.00;96.10;;;;;;6136611;23;20190;-80
2022/02/01 11:33:09;;;;;;;5.80;3.97;;;8.00;96.10;;;;;;6135352;23;20092;-80
2022/02/01 11:35:35;;;;;;;6.53;3.40;;;8.00;96.50;;;;;;6135083;23;20017;-80
2022/02/01 11:38:02;;;;;;;7.22;3.65;;;8.00;96.20;;;;;;6186851;23;20444;-80
2022/02/01 11:40:34;;;;;;;7.78;3.70;;;8.10;96.20;;;;;;6135588;23;20017;-80
2022/02/01 11:43:01;;;;;;;7.13;2.80;;;8.10;96.20;;;;;;6160621;23;20121;-80
2022/02/01 11:45:34;;;;;;;8.07;3.50;;;8.20;96.30;;;;;;6138423;23;20371;-82
2022/02/01 11:48:00;;;;;;;7.00;3.85;;;8.20;96.20;;;;;;6163440;23;20017;-79
2022/02/01 11:50:27;;;;;;;5.13;2.50;;;8.30;96.20;;;;;;6112219;23;20009;-81
2022/02/01 11:52:57;;;;;;;8.48;3.50;;;8.30;96.20;;;;;;6161190;23;20021;-80
2022/02/01 11:55:28;;;;;;;7.65;3.83;;;8.40;96.20;;;;;;6110823;23;20092;-79
2022/02/01 11:57:58;;;;;;;9.35;3.92;;;8.40;96.20;;;;;;6135419;23;20021;-80
2022/02/01 12:00:27;;;;;;;7.80;3.83;;;8.40;96.20;;;;;;6160973;23;20024;-81
2022/02/01 12:02:56;;;;;;;11.18;4.25;;;8.40;96.10;;;;;;6161215;23;20017;-78
2022/02/01 12:05:34;;;;;;;10.38;3.78;;;8.40;96.10;;;;;;6135882;23;20070;-79
2022/02/01 12:08:14;;;;;;;9.30;3.88;;;8.50;96.10;;;;;;6160312;23;20088;-79
2022/02/01 12:10:42;;;;;;;9.30;4.50;;;8.50;96.10;;;;;;6162356;23;20444;-80
2022/02/01 12:13:08;;;;;;;12.63;4.63;;;8.50;96.10;;;;;;6135882;23;20021;-80
2022/02/01 12:15:36;;;;;;;10.43;5.10;;;8.50;96.10;;;;;;6110341;23;20017;-79
2022/02/01 12:18:23;;;;;;;14.65;7.07;;;8.50;96.10;;;;;;6135001;23;20017;-79
2022/02/01 12:21:04;;;;;;;20.65;7.95;;;8.60;96.10;;;;;;6138897;23;20494;-78
2022/02/01 12:23:30;;;;;;;17.95;7.47;;;8.60;96.20;;;;;;6159515;23;20024;-83
2022/02/01 12:25:55;;;;;;;15.35;8.25;;;8.50;96.10;;;;;;6159937;23;20379;-79
2022/02/01 12:28:26;;;;;;;20.92;8.80;;;8.50;96.10;;;;;;6134548;23;20021;-79
2022/02/01 12:30:53;;;;;;;24.77;9.52;;;8.60;96.10;;;;;;6133062;23;20027;-81
2022/02/01 12:33:26;;;;;;;20.65;6.90;;;8.60;96.20;;;;;;6133038;23;20073;-80
2022/02/01 12:35:53;;;;;;;24.20;10.85;;;8.90;96.20;;;;;;6135911;23;20084;-79
2022/02/01 12:38:22;;;;;;;23.90;8.05;;;8.90;96.00;;;;;;6110482;23;20116;-86
2022/02/01 12:40:58;;;;;;;25.38;8.90;;;9.10;95.90;;;;;;6086608;23;20040;-81
2022/02/01 12:43:27;;;;;;;32.92;9.23;;;9.10;95.70;;;;;;6112697;23;20020;-82
2022/02/01 12:46:18;;;;;;;22.25;8.45;;;9.10;95.60;;;;;;6159838;23;20021;-83
2022/02/01 12:48:48;;;;;;;28.42;8.73;;;9.00;95.60;;;;;;6120001;23;20048;-88
2022/02/01 12:51:14;;;;;;;25.95;9.02;;;8.90;95.60;;;;;;6110821;23;20060;-77
2022/02/01 12:53:41;;;;;;;27.40;8.80;;;8.90;95.60;;;;;;6134758;23;20013;-83
2022/02/01 12:56:20;;;;;;;27.75;9.30;;;8.90;95.70;;;;;;6135165;23;20087;-79
2022/02/01 12:58:56;;;;;;;23.08;7.78;;;8.90;95.70;;;;;;6160344;23;20092;-83
2022/02/01 13:01:32;;;;;;;22.77;8.20;;;8.90;95.80;;;;;;6163503;23;20048;-82
2022/02/01 13:03:57;;;;;;;22.10;8.32;;;8.90;95.80;;;;;;6184486;23;20151;-80
2022/02/01 13:06:24;;;;;;;24.02;8.05;;;8.80;95.70;;;;;;6160380;23;20033;-81
2022/02/01 13:17:36;;;;;;;21.63;5.57;;;8.90;95.80;;;;;;6136158;23;20091;-89
2022/02/01 13:20:13;;;;;;;23.13;6.18;;;9.30;96.50;;;;;;6165758;23;20013;-84
2022/02/01 13:22:56;;;;;;;23.13;7.15;;;9.80;95.60;;;;;;6158477;23;20017;-87
2022/02/01 13:25:36;;;;;;;27.38;5.30;;;10.00;94.80;;;;;;6159573;23;20123;-81
2022/02/01 13:28:16;;;;;;;21.55;5.50;;;9.90;94.50;;;;;;6160555;23;20021;-80
2022/02/01 13:30:44;;;;;;;32.42;6.35;;;9.80;94.50;;;;;;6139071;23;20455;-83
2022/02/01 13:33:14;;;;;;;20.92;5.43;;;9.60;94.60;;;;;;6135367;23;20020;-80
2022/02/01 13:35:51;;;;;;;27.00;5.82;;;9.60;94.70;;;;;;6159545;23;20009;-91
2022/02/01 13:38:17;;;;;;;33.15;6.20;;;9.50;95.10;;;;;;6160737;23;20013;-78
2022/02/01 13:40:42;;;;;;;23.80;6.47;;;9.50;94.90;;;;;;6134538;23;20049;-88
2022/02/01 13:43:23;;;;;;;34.28;5.40;;;9.40;94.90;;;;;;6160478;23;20075;-84
2022/02/01 13:45:49;;;;;;;27.90;5.30;;;9.40;95.00;;;;;;6134686;23;20061;-85
2022/02/01 13:48:20;;;;;;;29.75;6.53;;;9.30;95.00;;;;;;6159330;23;20092;-92
2022/02/01 13:50:47;;;;;;;27.15;6.03;;;9.30;95.00;;;;;;6134819;23;20017;-81
2022/02/01 13:53:13;;;;;;;31.55;6.20;;;9.30;95.10;;;;;;6134472;23;20053;-77
2022/02/01 13:55:40;;;;;;;30.88;6.65;;;9.30;95.10;;;;;;6183342;23;20024;-80
2022/02/01 13:58:16;;;;;;;34.28;7.13;;;9.30;95.10;;;;;;6134295;23;20455;-79
2022/02/01 14:00:48;;;;;;;35.03;6.28;;;9.20;95.10;;;;;;6159261;23;20084;-77
2022/02/01 14:03:43;;;;;;;40.53;7.20;;;9.20;95.10;;;;;;6159032;23;20021;-80
2022/02/01 14:06:38;;;;;;;38.30;6.78;;;9.20;95.10;;;;;;6139420;23;20091;-80
2022/02/01 14:23:34;;;;;;;37.38;6.57;;;9.20;95.00;;;;;;6158557;23;20017;-82
2022/02/01 14:28:56;;;;;;;38.65;6.53;;;9.20;95.00;;;;;;6184935;23;20110;-84
2022/02/01 14:35:56;;;;;;;37.38;6.38;;;9.50;94.90;;;;;;6135989;23;20092;-81
2022/02/01 14:43:49;;;;;;;39.13;5.88;;;9.40;94.70;;;;;;6140762;23;20073;-82
2022/02/01 14:46:24;;;;;;;32.53;7.32;;;9.40;94.70;;;;;;6160135;23;20074;-80
2022/02/01 14:48:52;;;;;;;30.63;4.88;;;9.50;94.80;;;;;;6135071;23;20017;-88
2022/02/01 14:51:18;;;;;;;38.20;6.88;;;9.50;94.70;;;;;;6160544;23;20096;-84